sensor_id;sensor_type;location;lat;lon;timestamp;temperature;humidity
2130;DHT22;1071;52.544;13.374;2023-09-12T00:00:24;22.70;99.90
2130;DHT22;1071;52.544;13.374;2023-09-12T00:02:52;22.70;99.90
2130;DHT22;1071;52.544;13.374;2023-09-12T00:05:19;22.70;99.90
2130;DHT22;1071;52.544;13.374;2023-09-12T00:07:46;22.70;99.90
2130;DHT22;1071;52.544;13.374;2023-09-12T00:10:15;22.70;99.90
2130;DHT22;1071;52.544;13.374;2023-09-12T00:12:42;22.70;99.90
2130;DHT22;1071;52.544;13.374;2023-09-12T00:15:09;22.70;99.90
2130;DHT22;1071;52.544;13.374;2023-09-12T00:17:36;22.70;99.90
2130;DHT22;1071;52.544;13.374;2023-09-12T00:20:08;22.70;99.90
2130;DHT22;1071;52.544;13.374;2023-09-12T00:22:35;22.70;99.90
2130;DHT22;1071;52.544;13.374;2023-09-12T00:25:02;22.70;99.90
2130;DHT22;1071;52.544;13.374;2023-09-12T00:27:29;22.70;99.90
2130;DHT22;1071;52.544;13.374;2023-09-12T00:29:56;22.70;99.90
2130;DHT22;1071;52.544;13.374;2023-09-12T00:32:23;22.70;99.90
2130;DHT22;1071;52.544;13.374;2023-09-12T00:34:53;22.60;99.90
2130;DHT22;1071;52.544;13.374;2023-09-12T00:37:21;22.60;99.90
2130;DHT22;1071;52.544;13.374;2023-09-12T00:39:48;22.60;99.90
2130;DHT22;1071;52.544;13.374;2023-09-12T00:42:16;22.60;99.90
2130;DHT22;1071;52.544;13.374;2023-09-12T00:44:48;22.60;99.90
2130;DHT22;1071;52.544;13.374;2023-09-12T00:47:23;22.60;99.90
2130;DHT22;1071;52.544;13.374;2023-09-12T00:49:53;22.60;99.90
2130;DHT22;1071;52.544;13.374;2023-09-12T00:52:23;22.60;99.90
2130;DHT22;1071;52.544;13.374;2023-09-12T00:54:51;22.60;99.90
2130;DHT22;1071;52.544;13.374;2023-09-12T00:57:19;22.60;99.90
2130;DHT22;1071;52.544;13.374;2023-09-12T00:59:46;22.60;99.90
2130;DHT22;1071;52.544;13.374;2023-09-12T01:02:14;22.60;99.90
2130;DHT22;1071;52.544;13.374;2023-09-12T01:04:44;22.60;99.90
2130;DHT22;1071;52.544;13.374;2023-09-12T01:07:11;22.60;99.90
2130;DHT22;1071;52.544;13.374;2023-09-12T01:09:40;22.60;99.90
2130;DHT22;1071;52.544;13.374;2023-09-12T01:12:08;22.50;99.90
2130;DHT22;1071;52.544;13.374;2023-09-12T01:14:40;22.50;99.90
2130;DHT22;1071;52.544;13.374;2023-09-12T01:17:07;22.50;99.90
2130;DHT22;1071;52.544;13.374;2023-09-12T01:19:34;22.50;99.90
2130;DHT22;1071;52.544;13.374;2023-09-12T01:22:29;22.60;99.90
2130;DHT22;1071;52.544;13.374;2023-09-12T01:25:40;22.60;99.90
2130;DHT22;1071;52.544;13.374;2023-09-12T01:28:10;22.50;99.90
2130;DHT22;1071;52.544;13.374;2023-09-12T01:30:42;22.50;99.90
2130;DHT22;1071;52.544;13.374;2023-09-12T01:33:12;22.50;99.90
2130;DHT22;1071;52.544;13.374;2023-09-12T01:35:39;22.50;99.90
2130;DHT22;1071;52.544;13.374;2023-09-12T01:38:06;22.50;99.90
2130;DHT22;1071;52.544;13.374;2023-09-12T01:40:36;22.50;99.90
2130;DHT22;1071;52.544;13.374;2023-09-12T01:43:08;22.40;99.90
2130;DHT22;1071;52.544;13.374;2023-09-12T01:45:40;22.40;99.90
2130;DHT22;1071;52.544;13.374;2023-09-12T01:48:08;22.40;99.90
2130;DHT22;1071;52.544;13.374;2023-09-12T01:50:36;22.40;99.90
2130;DHT22;1071;52.544;13.374;2023-09-12T01:53:03;22.40;99.90
2130;DHT22;1071;52.544;13.374;2023-09-12T01:55:31;22.40;99.90
2130;DHT22;1071;52.544;13.374;2023-09-12T01:57:58;22.40;99.90
2130;DHT22;1071;52.544;13.374;2023-09-12T02:00:25;22.40;99.90
2130;DHT22;1071;52.544;13.374;2023-09-12T02:02:54;22.30;99.90
2130;DHT22;1071;52.544;13.374;2023-09-12T02:05:22;22.30;99.90
2130;DHT22;1071;52.544;13.374;2023-09-12T02:07:49;22.30;99.90
2130;DHT22;1071;52.544;13.374;2023-09-12T02:10:16;22.30;99.90
2130;DHT22;1071;52.544;13.374;2023-09-12T02:12:43;22.30;99.90
2130;DHT22;1071;52.544;13.374;2023-09-12T02:15:11;22.30;99.90
2130;DHT22;1071;52.544;13.374;2023-09-12T02:17:38;22.30;99.90
2130;DHT22;1071;52.544;13.374;2023-09-12T02:20:08;22.30;99.90
2130;DHT22;1071;52.544;13.374;2023-09-12T02:22:35;22.30;99.90
2130;DHT22;1071;52.544;13.374;2023-09-12T02:25:03;22.20;99.90
2130;DHT22;1071;52.544;13.374;2023-09-12T02:27:39;22.20;99.90
2130;DHT22;1071;52.544;13.374;2023-09-12T02:30:09;22.20;99.90
2130;DHT22;1071;52.544;13.374;2023-09-12T02:32:36;22.20;99.90
2130;DHT22;1071;52.544;13.374;2023-09-12T02:35:03;22.20;99.90
2130;DHT22;1071;52.544;13.374;2023-09-12T02:37:32;22.20;99.90
2130;DHT22;1071;52.544;13.374;2023-09-12T02:39:59;22.20;99.90
2130;DHT22;1071;52.544;13.374;2023-09-12T02:42:26;22.20;99.90
2130;DHT22;1071;52.544;13.374;2023-09-12T02:44:59;22.20;99.90
2130;DHT22;1071;52.544;13.374;2023-09-12T02:47:26;22.20;99.90
2130;DHT22;1071;52.544;13.374;2023-09-12T02:49:53;22.10;99.90
2130;DHT22;1071;52.544;13.374;2023-09-12T02:52:20;22.10;99.90
2130;DHT22;1071;52.544;13.374;2023-09-12T02:54:48;22.10;99.90
2130;DHT22;1071;52.544;13.374;2023-09-12T02:57:15;22.10;99.90
2130;DHT22;1071;52.544;13.374;2023-09-12T02:59:42;22.10;99.90
2130;DHT22;1071;52.544;13.374;2023-09-12T03:02:10;22.10;99.90
2130;DHT22;1071;52.544;13.374;2023-09-12T03:04:37;22.10;99.90
2130;DHT22;1071;52.544;13.374;2023-09-12T03:07:04;22.10;99.90
2130;DHT22;1071;52.544;13.374;2023-09-12T03:09:31;22.10;99.90
2130;DHT22;1071;52.544;13.374;2023-09-12T03:12:00;22.10;99.90
2130;DHT22;1071;52.544;13.374;2023-09-12T03:14:27;22.10;99.90
2130;DHT22;1071;52.544;13.374;2023-09-12T03:16:54;22.00;99.90
2130;DHT22;1071;52.544;13.374;2023-09-12T03:19:22;22.00;99.90
2130;DHT22;1071;52.544;13.374;2023-09-12T03:21:49;22.00;99.90
2130;DHT22;1071;52.544;13.374;2023-09-12T03:24:16;22.00;99.90
2130;DHT22;1071;52.544;13.374;2023-09-12T03:26:44;22.00;99.90
2130;DHT22;1071;52.544;13.374;2023-09-12T03:29:12;22.00;99.90
2130;DHT22;1071;52.544;13.374;2023-09-12T03:31:39;22.00;99.90
2130;DHT22;1071;52.544;13.374;2023-09-12T03:34:08;22.00;99.90
2130;DHT22;1071;52.544;13.374;2023-09-12T03:36:35;22.00;99.90
2130;DHT22;1071;52.544;13.374;2023-09-12T03:39:04;22.00;99.90
2130;DHT22;1071;52.544;13.374;2023-09-12T03:41:34;22.00;99.90
2130;DHT22;1071;52.544;13.374;2023-09-12T03:44:01;21.90;99.90
2130;DHT22;1071;52.544;13.374;2023-09-12T03:46:31;21.90;99.90
2130;DHT22;1071;52.544;13.374;2023-09-12T03:48:58;21.90;99.90
2130;DHT22;1071;52.544;13.374;2023-09-12T03:51:26;21.90;99.90
2130;DHT22;1071;52.544;13.374;2023-09-12T03:53:53;21.90;99.90
2130;DHT22;1071;52.544;13.374;2023-09-12T03:56:20;21.90;99.90
2130;DHT22;1071;52.544;13.374;2023-09-12T03:58:47;21.90;99.90
2130;DHT22;1071;52.544;13.374;2023-09-12T04:01:14;21.90;99.90
2130;DHT22;1071;52.544;13.374;2023-09-12T04:03:44;21.90;99.90
2130;DHT22;1071;52.544;13.374;2023-09-12T04:06:13;21.90;99.90
2130;DHT22;1071;52.544;13.374;2023-09-12T04:08:40;21.90;99.90
2130;DHT22;1071;52.544;13.374;2023-09-12T04:11:08;21.90;99.90
2130;DHT22;1071;52.544;13.374;2023-09-12T04:13:36;21.90;99.90
2130;DHT22;1071;52.544;13.374;2023-09-12T04:16:06;21.90;99.90
2130;DHT22;1071;52.544;13.374;2023-09-12T04:18:33;21.90;99.90
2130;DHT22;1071;52.544;13.374;2023-09-12T04:21:04;21.80;99.90
2130;DHT22;1071;52.544;13.374;2023-09-12T04:23:31;21.80;99.90
2130;DHT22;1071;52.544;13.374;2023-09-12T04:26:01;21.80;99.90
2130;DHT22;1071;52.544;13.374;2023-09-12T04:28:28;21.80;99.90
2130;DHT22;1071;52.544;13.374;2023-09-12T04:34:11;21.80;99.90
2130;DHT22;1071;52.544;13.374;2023-09-12T04:36:39;21.80;99.90
2130;DHT22;1071;52.544;13.374;2023-09-12T04:39:08;21.80;99.90
2130;DHT22;1071;52.544;13.374;2023-09-12T04:41:35;21.80;99.90
2130;DHT22;1071;52.544;13.374;2023-09-12T04:44:03;21.80;99.90
2130;DHT22;1071;52.544;13.374;2023-09-12T04:46:30;21.80;99.90
2130;DHT22;1071;52.544;13.374;2023-09-12T04:48:57;21.80;99.90
2130;DHT22;1071;52.544;13.374;2023-09-12T04:51:24;21.80;99.90
2130;DHT22;1071;52.544;13.374;2023-09-12T04:53:57;21.80;99.90
2130;DHT22;1071;52.544;13.374;2023-09-12T04:56:24;21.80;99.90
2130;DHT22;1071;52.544;13.374;2023-09-12T04:58:51;21.80;99.90
2130;DHT22;1071;52.544;13.374;2023-09-12T05:01:19;21.80;99.90
2130;DHT22;1071;52.544;13.374;2023-09-12T05:03:46;21.80;99.90
2130;DHT22;1071;52.544;13.374;2023-09-12T05:06:13;21.80;99.90
2130;DHT22;1071;52.544;13.374;2023-09-12T05:08:40;21.80;99.90
2130;DHT22;1071;52.544;13.374;2023-09-12T05:11:08;21.80;99.90
2130;DHT22;1071;52.544;13.374;2023-09-12T05:13:37;21.90;99.90
2130;DHT22;1071;52.544;13.374;2023-09-12T05:16:07;21.90;99.90
2130;DHT22;1071;52.544;13.374;2023-09-12T05:18:34;21.90;99.90
2130;DHT22;1071;52.544;13.374;2023-09-12T05:21:01;21.90;99.90
2130;DHT22;1071;52.544;13.374;2023-09-12T05:23:28;21.90;99.90
2130;DHT22;1071;52.544;13.374;2023-09-12T05:29:11;22.00;99.90
2130;DHT22;1071;52.544;13.374;2023-09-12T05:31:41;22.00;99.90
2130;DHT22;1071;52.544;13.374;2023-09-12T05:34:08;22.00;99.90
2130;DHT22;1071;52.544;13.374;2023-09-12T05:36:35;22.00;99.90
2130;DHT22;1071;52.544;13.374;2023-09-12T05:39:02;22.10;99.90
2130;DHT22;1071;52.544;13.374;2023-09-12T05:41:30;22.00;99.90
2130;DHT22;1071;52.544;13.374;2023-09-12T05:43:57;22.10;99.90
2130;DHT22;1071;52.544;13.374;2023-09-12T05:46:26;22.10;99.90
2130;DHT22;1071;52.544;13.374;2023-09-12T05:48:55;22.10;99.90
2130;DHT22;1071;52.544;13.374;2023-09-12T05:51:28;22.20;99.90
2130;DHT22;1071;52.544;13.374;2023-09-12T05:53:57;22.20;99.90
2130;DHT22;1071;52.544;13.374;2023-09-12T05:56:26;22.20;99.90
2130;DHT22;1071;52.544;13.374;2023-09-12T05:58:53;22.20;99.90
2130;DHT22;1071;52.544;13.374;2023-09-12T06:01:20;22.20;99.90
2130;DHT22;1071;52.544;13.374;2023-09-12T06:03:52;22.20;99.90
2130;DHT22;1071;52.544;13.374;2023-09-12T06:06:22;22.30;99.90
2130;DHT22;1071;52.544;13.374;2023-09-12T06:08:51;22.30;99.90
2130;DHT22;1071;52.544;13.374;2023-09-12T06:11:19;22.30;99.90
2130;DHT22;1071;52.544;13.374;2023-09-12T06:13:46;22.30;99.90
2130;DHT22;1071;52.544;13.374;2023-09-12T06:16:19;22.40;99.90
2130;DHT22;1071;52.544;13.374;2023-09-12T06:18:46;22.40;99.90
2130;DHT22;1071;52.544;13.374;2023-09-12T06:21:15;22.40;99.90
2130;DHT22;1071;52.544;13.374;2023-09-12T06:23:42;22.50;99.90
2130;DHT22;1071;52.544;13.374;2023-09-12T06:26:11;22.50;99.90
2130;DHT22;1071;52.544;13.374;2023-09-12T06:28:38;22.50;99.90
2130;DHT22;1071;52.544;13.374;2023-09-12T06:31:08;22.60;99.90
2130;DHT22;1071;52.544;13.374;2023-09-12T06:33:35;22.60;99.90
2130;DHT22;1071;52.544;13.374;2023-09-12T06:36:03;22.60;99.90
2130;DHT22;1071;52.544;13.374;2023-09-12T06:38:32;22.70;99.90
2130;DHT22;1071;52.544;13.374;2023-09-12T06:40:59;22.70;99.90
2130;DHT22;1071;52.544;13.374;2023-09-12T06:43:28;22.80;99.90
2130;DHT22;1071;52.544;13.374;2023-09-12T06:45:59;22.80;99.90
2130;DHT22;1071;52.544;13.374;2023-09-12T06:48:26;22.80;99.90
2130;DHT22;1071;52.544;13.374;2023-09-12T06:50:54;22.90;99.90
2130;DHT22;1071;52.544;13.374;2023-09-12T06:53:21;22.90;99.90
2130;DHT22;1071;52.544;13.374;2023-09-12T06:55:50;22.90;99.90
2130;DHT22;1071;52.544;13.374;2023-09-12T06:58:19;23.00;99.90
2130;DHT22;1071;52.544;13.374;2023-09-12T07:00:46;23.00;99.90
2130;DHT22;1071;52.544;13.374;2023-09-12T07:03:17;23.10;99.90
2130;DHT22;1071;52.544;13.374;2023-09-12T07:05:57;23.00;99.90
2130;DHT22;1071;52.544;13.374;2023-09-12T07:08:25;23.10;99.90
2130;DHT22;1071;52.544;13.374;2023-09-12T07:10:56;23.10;99.90
2130;DHT22;1071;52.544;13.374;2023-09-12T07:13:37;23.20;99.90
2130;DHT22;1071;52.544;13.374;2023-09-12T07:16:05;23.30;99.90
2130;DHT22;1071;52.544;13.374;2023-09-12T07:18:34;23.30;99.90
2130;DHT22;1071;52.544;13.374;2023-09-12T07:21:05;23.40;99.90
2130;DHT22;1071;52.544;13.374;2023-09-12T07:23:47;23.40;99.90
2130;DHT22;1071;52.544;13.374;2023-09-12T07:33:16;23.60;99.90
2130;DHT22;1071;52.544;13.374;2023-09-12T07:35:43;23.70;99.90
2130;DHT22;1071;52.544;13.374;2023-09-12T07:38:12;23.70;99.90
2130;DHT22;1071;52.544;13.374;2023-09-12T07:40:40;23.80;99.90
2130;DHT22;1071;52.544;13.374;2023-09-12T07:43:08;23.80;99.90
2130;DHT22;1071;52.544;13.374;2023-09-12T07:45:40;23.90;99.90
2130;DHT22;1071;52.544;13.374;2023-09-12T07:48:09;23.90;99.90
2130;DHT22;1071;52.544;13.374;2023-09-12T07:50:39;23.90;99.90
2130;DHT22;1071;52.544;13.374;2023-09-12T07:53:07;24.00;99.90
2130;DHT22;1071;52.544;13.374;2023-09-12T07:55:39;24.00;99.90
2130;DHT22;1071;52.544;13.374;2023-09-12T07:58:11;24.10;99.90
2130;DHT22;1071;52.544;13.374;2023-09-12T08:00:40;24.10;99.90
2130;DHT22;1071;52.544;13.374;2023-09-12T08:03:07;24.20;99.90
2130;DHT22;1071;52.544;13.374;2023-09-12T08:05:59;24.20;99.90
2130;DHT22;1071;52.544;13.374;2023-09-12T08:08:27;24.30;99.90
2130;DHT22;1071;52.544;13.374;2023-09-12T08:11:03;24.30;99.90
2130;DHT22;1071;52.544;13.374;2023-09-12T08:13:48;24.40;99.90
2130;DHT22;1071;52.544;13.374;2023-09-12T08:16:19;24.50;99.90
2130;DHT22;1071;52.544;13.374;2023-09-12T08:18:50;24.50;99.90
2130;DHT22;1071;52.544;13.374;2023-09-12T08:21:38;24.50;99.90
2130;DHT22;1071;52.544;13.374;2023-09-12T08:24:25;24.60;99.90
2130;DHT22;1071;52.544;13.374;2023-09-12T08:26:59;24.60;99.90
2130;DHT22;1071;52.544;13.374;2023-09-12T08:29:28;24.70;99.90
2130;DHT22;1071;52.544;13.374;2023-09-12T08:32:01;24.70;99.90
2130;DHT22;1071;52.544;13.374;2023-09-12T08:34:28;24.80;99.90
2130;DHT22;1071;52.544;13.374;2023-09-12T08:37:09;24.80;99.90
2130;DHT22;1071;52.544;13.374;2023-09-12T08:39:41;24.80;99.90
2130;DHT22;1071;52.544;13.374;2023-09-12T08:42:12;24.90;99.90
2130;DHT22;1071;52.544;13.374;2023-09-12T08:44:40;25.00;99.90
2130;DHT22;1071;52.544;13.374;2023-09-12T08:47:09;25.00;99.90
2130;DHT22;1071;52.544;13.374;2023-09-12T08:49:41;25.10;99.90
2130;DHT22;1071;52.544;13.374;2023-09-12T08:52:12;25.10;99.90
2130;DHT22;1071;52.544;13.374;2023-09-12T08:54:45;25.20;99.90
2130;DHT22;1071;52.544;13.374;2023-09-12T08:57:13;25.20;99.90
2130;DHT22;1071;52.544;13.374;2023-09-12T08:59:43;25.20;99.90
2130;DHT22;1071;52.544;13.374;2023-09-12T09:02:13;25.30;99.90
2130;DHT22;1071;52.544;13.374;2023-09-12T09:04:46;25.30;99.90
2130;DHT22;1071;52.544;13.374;2023-09-12T09:07:15;25.40;99.90
2130;DHT22;1071;52.544;13.374;2023-09-12T09:09:46;25.40;99.90
2130;DHT22;1071;52.544;13.374;2023-09-12T09:12:14;25.40;99.90
2130;DHT22;1071;52.544;13.374;2023-09-12T09:14:44;25.40;99.90
2130;DHT22;1071;52.544;13.374;2023-09-12T09:17:11;25.40;99.90
2130;DHT22;1071;52.544;13.374;2023-09-12T09:19:43;25.50;99.90
2130;DHT22;1071;52.544;13.374;2023-09-12T09:22:21;25.50;99.90
2130;DHT22;1071;52.544;13.374;2023-09-12T09:25:17;25.50;99.90
2130;DHT22;1071;52.544;13.374;2023-09-12T09:28:24;25.60;99.90
2130;DHT22;1071;52.544;13.374;2023-09-12T09:31:27;25.60;99.90
2130;DHT22;1071;52.544;13.374;2023-09-12T09:34:01;25.60;99.90
2130;DHT22;1071;52.544;13.374;2023-09-12T09:36:53;25.60;99.90
2130;DHT22;1071;52.544;13.374;2023-09-12T09:39:26;25.60;99.90
2130;DHT22;1071;52.544;13.374;2023-09-12T09:41:55;25.60;99.90
2130;DHT22;1071;52.544;13.374;2023-09-12T09:44:24;25.60;99.90
2130;DHT22;1071;52.544;13.374;2023-09-12T09:46:55;25.60;99.90
2130;DHT22;1071;52.544;13.374;2023-09-12T09:49:23;25.60;99.90
2130;DHT22;1071;52.544;13.374;2023-09-12T09:51:50;25.60;99.90
2130;DHT22;1071;52.544;13.374;2023-09-12T09:54:21;25.60;99.90
2130;DHT22;1071;52.544;13.374;2023-09-12T09:56:56;25.70;99.90
2130;DHT22;1071;52.544;13.374;2023-09-12T09:59:26;25.70;99.90
2130;DHT22;1071;52.544;13.374;2023-09-12T10:01:55;25.70;99.90
2130;DHT22;1071;52.544;13.374;2023-09-12T10:04:27;25.80;99.90
2130;DHT22;1071;52.544;13.374;2023-09-12T10:07:00;25.80;99.90
2130;DHT22;1071;52.544;13.374;2023-09-12T10:09:33;25.80;99.90
2130;DHT22;1071;52.544;13.374;2023-09-12T10:12:05;25.80;99.90
2130;DHT22;1071;52.544;13.374;2023-09-12T10:14:53;25.80;99.90
2130;DHT22;1071;52.544;13.374;2023-09-12T10:17:24;25.80;99.90
2130;DHT22;1071;52.544;13.374;2023-09-12T10:19:59;25.90;99.90
2130;DHT22;1071;52.544;13.374;2023-09-12T10:22:39;25.90;99.90
2130;DHT22;1071;52.544;13.374;2023-09-12T10:25:08;25.90;99.90
2130;DHT22;1071;52.544;13.374;2023-09-12T10:27:37;25.90;99.90
2130;DHT22;1071;52.544;13.374;2023-09-12T10:30:06;26.00;99.90
2130;DHT22;1071;52.544;13.374;2023-09-12T10:32:37;26.00;99.90
2130;DHT22;1071;52.544;13.374;2023-09-12T10:35:06;26.10;99.90
2130;DHT22;1071;52.544;13.374;2023-09-12T10:37:38;26.10;99.90
2130;DHT22;1071;52.544;13.374;2023-09-12T10:40:13;26.20;99.90
2130;DHT22;1071;52.544;13.374;2023-09-12T10:42:46;26.20;99.90
2130;DHT22;1071;52.544;13.374;2023-09-12T10:45:13;26.30;99.90
2130;DHT22;1071;52.544;13.374;2023-09-12T10:47:42;26.40;99.90
2130;DHT22;1071;52.544;13.374;2023-09-12T10:50:15;26.40;99.90
2130;DHT22;1071;52.544;13.374;2023-09-12T10:52:43;26.40;99.90
2130;DHT22;1071;52.544;13.374;2023-09-12T10:55:16;26.40;99.90
2130;DHT22;1071;52.544;13.374;2023-09-12T10:58:03;26.50;99.90
2130;DHT22;1071;52.544;13.374;2023-09-12T11:00:31;26.50;99.90
2130;DHT22;1071;52.544;13.374;2023-09-12T11:03:01;26.50;99.90
2130;DHT22;1071;52.544;13.374;2023-09-12T11:05:52;26.50;99.90
2130;DHT22;1071;52.544;13.374;2023-09-12T11:08:20;26.40;99.90
2130;DHT22;1071;52.544;13.374;2023-09-12T11:11:16;26.40;99.90
2130;DHT22;1071;52.544;13.374;2023-09-12T11:13:45;26.30;99.90
2130;DHT22;1071;52.544;13.374;2023-09-12T11:16:13;26.30;99.90
2130;DHT22;1071;52.544;13.374;2023-09-12T11:19:11;26.30;99.90
2130;DHT22;1071;52.544;13.374;2023-09-12T11:21:38;26.30;99.90
2130;DHT22;1071;52.544;13.374;2023-09-12T11:24:06;26.30;99.90
2130;DHT22;1071;52.544;13.374;2023-09-12T11:26:33;26.30;99.90
2130;DHT22;1071;52.544;13.374;2023-09-12T11:29:11;26.30;99.90
2130;DHT22;1071;52.544;13.374;2023-09-12T11:31:39;26.30;99.90
2130;DHT22;1071;52.544;13.374;2023-09-12T11:34:09;26.20;99.90
2130;DHT22;1071;52.544;13.374;2023-09-12T11:36:41;26.20;99.90
2130;DHT22;1071;52.544;13.374;2023-09-12T11:39:22;26.20;99.90
2130;DHT22;1071;52.544;13.374;2023-09-12T11:41:55;26.10;99.90
2130;DHT22;1071;52.544;13.374;2023-09-12T11:44:35;26.20;99.90
2130;DHT22;1071;52.544;13.374;2023-09-12T11:47:03;26.20;99.90
2130;DHT22;1071;52.544;13.374;2023-09-12T11:49:35;26.20;99.90
2130;DHT22;1071;52.544;13.374;2023-09-12T11:52:07;26.20;99.90
2130;DHT22;1071;52.544;13.374;2023-09-12T11:54:35;26.30;99.90
2130;DHT22;1071;52.544;13.374;2023-09-12T11:57:02;26.30;99.90
2130;DHT22;1071;52.544;13.374;2023-09-12T11:59:39;26.30;99.90
2130;DHT22;1071;52.544;13.374;2023-09-12T12:02:12;26.30;99.90
2130;DHT22;1071;52.544;13.374;2023-09-12T12:04:42;26.30;99.90
2130;DHT22;1071;52.544;13.374;2023-09-12T12:07:10;26.30;99.90
2130;DHT22;1071;52.544;13.374;2023-09-12T12:09:42;26.30;99.90
2130;DHT22;1071;52.544;13.374;2023-09-12T12:12:11;26.20;99.90
2130;DHT22;1071;52.544;13.374;2023-09-12T12:14:41;26.30;99.90
2130;DHT22;1071;52.544;13.374;2023-09-12T12:17:11;26.30;99.90
2130;DHT22;1071;52.544;13.374;2023-09-12T12:19:39;26.30;99.90
2130;DHT22;1071;52.544;13.374;2023-09-12T12:22:06;26.30;99.90
2130;DHT22;1071;52.544;13.374;2023-09-12T12:24:37;26.30;99.90
2130;DHT22;1071;52.544;13.374;2023-09-12T12:27:04;26.30;99.90
2130;DHT22;1071;52.544;13.374;2023-09-12T12:29:37;26.30;99.90
2130;DHT22;1071;52.544;13.374;2023-09-12T12:32:10;26.30;99.90
2130;DHT22;1071;52.544;13.374;2023-09-12T12:34:47;26.30;99.90
2130;DHT22;1071;52.544;13.374;2023-09-12T12:37:20;26.40;99.90
2130;DHT22;1071;52.544;13.374;2023-09-12T12:39:47;26.40;99.90
2130;DHT22;1071;52.544;13.374;2023-09-12T12:42:14;26.40;99.90
2130;DHT22;1071;52.544;13.374;2023-09-12T12:44:42;26.40;99.90
2130;DHT22;1071;52.544;13.374;2023-09-12T12:47:14;26.40;99.90
2130;DHT22;1071;52.544;13.374;2023-09-12T12:49:43;26.40;99.90
2130;DHT22;1071;52.544;13.374;2023-09-12T12:52:10;26.30;99.90
2130;DHT22;1071;52.544;13.374;2023-09-12T12:55:14;26.40;99.90
2130;DHT22;1071;52.544;13.374;2023-09-12T12:57:47;26.40;99.90
2130;DHT22;1071;52.544;13.374;2023-09-12T13:00:15;26.40;99.90
2130;DHT22;1071;52.544;13.374;2023-09-12T13:02:46;26.50;99.90
2130;DHT22;1071;52.544;13.374;2023-09-12T13:05:20;26.60;99.90
2130;DHT22;1071;52.544;13.374;2023-09-12T13:07:49;26.70;99.90
2130;DHT22;1071;52.544;13.374;2023-09-12T13:10:16;26.70;99.90
2130;DHT22;1071;52.544;13.374;2023-09-12T13:12:43;26.70;99.90
2130;DHT22;1071;52.544;13.374;2023-09-12T13:15:12;26.80;99.90
2130;DHT22;1071;52.544;13.374;2023-09-12T13:18:05;26.80;99.90
2130;DHT22;1071;52.544;13.374;2023-09-12T13:20:50;26.90;99.90
2130;DHT22;1071;52.544;13.374;2023-09-12T13:23:24;26.90;99.90
2130;DHT22;1071;52.544;13.374;2023-09-12T13:25:51;26.90;99.90
2130;DHT22;1071;52.544;13.374;2023-09-12T13:28:20;27.00;99.90
2130;DHT22;1071;52.544;13.374;2023-09-12T13:30:49;27.00;99.90
2130;DHT22;1071;52.544;13.374;2023-09-12T13:33:17;27.10;99.90
2130;DHT22;1071;52.544;13.374;2023-09-12T13:35:44;27.10;99.90
2130;DHT22;1071;52.544;13.374;2023-09-12T13:38:11;27.10;99.90
2130;DHT22;1071;52.544;13.374;2023-09-12T13:40:39;27.20;99.90
2130;DHT22;1071;52.544;13.374;2023-09-12T13:43:12;27.20;99.90
2130;DHT22;1071;52.544;13.374;2023-09-12T13:45:48;27.30;99.90
2130;DHT22;1071;52.544;13.374;2023-09-12T13:48:20;27.20;99.90
2130;DHT22;1071;52.544;13.374;2023-09-12T13:50:46;27.20;99.90
2130;DHT22;1071;52.544;13.374;2023-09-12T13:53:14;27.10;99.90
2130;DHT22;1071;52.544;13.374;2023-09-12T13:55:41;27.00;99.90
2130;DHT22;1071;52.544;13.374;2023-09-12T13:58:10;26.90;99.90
2130;DHT22;1071;52.544;13.374;2023-09-12T14:00:40;26.90;99.90
2130;DHT22;1071;52.544;13.374;2023-09-12T14:03:09;26.80;99.90
2130;DHT22;1071;52.544;13.374;2023-09-12T14:05:47;26.80;99.90
2130;DHT22;1071;52.544;13.374;2023-09-12T14:08:19;26.70;99.90
2130;DHT22;1071;52.544;13.374;2023-09-12T14:10:46;26.70;99.90
2130;DHT22;1071;52.544;13.374;2023-09-12T14:13:13;26.70;99.90
2130;DHT22;1071;52.544;13.374;2023-09-12T14:15:43;26.70;99.90
2130;DHT22;1071;52.544;13.374;2023-09-12T14:18:12;26.60;99.90
2130;DHT22;1071;52.544;13.374;2023-09-12T14:20:39;26.60;99.90
2130;DHT22;1071;52.544;13.374;2023-09-12T14:23:09;26.60;99.90
2130;DHT22;1071;52.544;13.374;2023-09-12T14:26:05;26.60;99.90
2130;DHT22;1071;52.544;13.374;2023-09-12T14:28:39;26.60;99.90
2130;DHT22;1071;52.544;13.374;2023-09-12T14:31:06;26.50;99.90
2130;DHT22;1071;52.544;13.374;2023-09-12T14:33:42;26.50;99.90
2130;DHT22;1071;52.544;13.374;2023-09-12T14:36:10;26.50;99.90
2130;DHT22;1071;52.544;13.374;2023-09-12T14:38:38;26.40;99.90
2130;DHT22;1071;52.544;13.374;2023-09-12T14:41:06;26.40;99.90
2130;DHT22;1071;52.544;13.374;2023-09-12T14:43:38;26.30;99.90
2130;DHT22;1071;52.544;13.374;2023-09-12T14:46:35;26.30;99.90
2130;DHT22;1071;52.544;13.374;2023-09-12T14:49:06;26.30;99.90
2130;DHT22;1071;52.544;13.374;2023-09-12T14:51:33;26.20;99.90
2130;DHT22;1071;52.544;13.374;2023-09-12T14:54:05;26.20;99.90
2130;DHT22;1071;52.544;13.374;2023-09-12T14:56:33;26.20;99.90
2130;DHT22;1071;52.544;13.374;2023-09-12T14:59:00;26.20;99.90
2130;DHT22;1071;52.544;13.374;2023-09-12T15:01:30;26.20;99.90
2130;DHT22;1071;52.544;13.374;2023-09-12T15:04:01;26.10;99.90
2130;DHT22;1071;52.544;13.374;2023-09-12T15:06:34;26.10;99.90
2130;DHT22;1071;52.544;13.374;2023-09-12T15:09:07;26.10;99.90
2130;DHT22;1071;52.544;13.374;2023-09-12T15:11:36;26.10;99.90
2130;DHT22;1071;52.544;13.374;2023-09-12T15:14:06;26.10;99.90
2130;DHT22;1071;52.544;13.374;2023-09-12T15:16:33;26.10;99.90
2130;DHT22;1071;52.544;13.374;2023-09-12T15:19:11;26.10;99.90
2130;DHT22;1071;52.544;13.374;2023-09-12T15:21:49;26.10;99.90
2130;DHT22;1071;52.544;13.374;2023-09-12T15:24:30;26.00;99.90
2130;DHT22;1071;52.544;13.374;2023-09-12T15:26:59;26.00;99.90
2130;DHT22;1071;52.544;13.374;2023-09-12T15:29:33;25.90;99.90
2130;DHT22;1071;52.544;13.374;2023-09-12T15:32:10;25.70;99.90
2130;DHT22;1071;52.544;13.374;2023-09-12T15:34:39;25.50;99.90
2130;DHT22;1071;52.544;13.374;2023-09-12T15:37:09;25.60;99.90
2130;DHT22;1071;52.544;13.374;2023-09-12T15:39:40;25.50;99.90
2130;DHT22;1071;52.544;13.374;2023-09-12T15:42:07;25.50;99.90
2130;DHT22;1071;52.544;13.374;2023-09-12T15:44:47;25.40;99.90
2130;DHT22;1071;52.544;13.374;2023-09-12T15:47:16;25.40;99.90
2130;DHT22;1071;52.544;13.374;2023-09-12T15:49:45;25.40;99.90
2130;DHT22;1071;52.544;13.374;2023-09-12T15:52:20;25.40;99.90
2130;DHT22;1071;52.544;13.374;2023-09-12T15:55:00;25.40;99.90
2130;DHT22;1071;52.544;13.374;2023-09-12T15:57:28;25.40;99.90
2130;DHT22;1071;52.544;13.374;2023-09-12T16:00:14;25.40;99.90
2130;DHT22;1071;52.544;13.374;2023-09-12T16:02:46;25.40;99.90
2130;DHT22;1071;52.544;13.374;2023-09-12T16:05:32;25.40;99.90
2130;DHT22;1071;52.544;13.374;2023-09-12T16:11:08;25.40;99.90
2130;DHT22;1071;52.544;13.374;2023-09-12T16:13:53;25.40;99.90
2130;DHT22;1071;52.544;13.374;2023-09-12T16:16:34;25.40;99.90
2130;DHT22;1071;52.544;13.374;2023-09-12T16:19:03;25.30;99.90
2130;DHT22;1071;52.544;13.374;2023-09-12T16:21:37;25.30;99.90
2130;DHT22;1071;52.544;13.374;2023-09-12T16:24:14;25.30;99.90